sensor_id;sensor_type;location;lat;lon;timestamp;pressure;altitude;pressure_sealevel;temperature;humidity
11099;BME280;12223;42.650;23.364;2023-03-17T00:01:53;94732.19;;;1.94;100.00
11099;BME280;12223;42.650;23.364;2023-03-17T00:04:37;94739.03;;;1.87;100.00
11099;BME280;12223;42.650;23.364;2023-03-17T00:07:05;94711.59;;;1.69;100.00
11099;BME280;12223;42.650;23.364;2023-03-17T00:09:32;94715.31;;;1.74;100.00
11099;BME280;12223;42.650;23.364;2023-03-17T00:11:59;94739.34;;;1.84;100.00
11099;BME280;12223;42.650;23.364;2023-03-17T00:14:26;94737.41;;;1.86;100.00
11099;BME280;12223;42.650;23.364;2023-03-17T00:16:53;94731.53;;;1.92;100.00
11099;BME280;12223;42.650;23.364;2023-03-17T00:19:27;94733.16;;;1.93;100.00
11099;BME280;12223;42.650;23.364;2023-03-17T00:21:56;94732.50;;;1.91;100.00
11099;BME280;12223;42.650;23.364;2023-03-17T00:24:25;94681.34;;;1.59;100.00
11099;BME280;12223;42.650;23.364;2023-03-17T00:26:52;94736.94;;;1.83;100.00
11099;BME280;12223;42.650;23.364;2023-03-17T00:29:19;94735.94;;;1.84;100.00
11099;BME280;12223;42.650;23.364;2023-03-17T00:31:46;94724.25;;;1.72;100.00
11099;BME280;12223;42.650;23.364;2023-03-17T00:34:17;94731.41;;;1.78;100.00
11099;BME280;12223;42.650;23.364;2023-03-17T00:36:47;94724.41;;;1.78;100.00
11099;BME280;12223;42.650;23.364;2023-03-17T00:39:15;94732.53;;;1.83;100.00
11099;BME280;12223;42.650;23.364;2023-03-17T00:41:44;94734.34;;;1.83;100.00
11099;BME280;12223;42.650;23.364;2023-03-17T00:44:11;94727.97;;;1.77;100.00
11099;BME280;12223;42.650;23.364;2023-03-17T00:46:39;94737.09;;;1.73;100.00
11099;BME280;12223;42.650;23.364;2023-03-17T00:49:12;94696.31;;;1.57;100.00
11099;BME280;12223;42.650;23.364;2023-03-17T00:51:41;94733.19;;;1.77;100.00
11099;BME280;12223;42.650;23.364;2023-03-17T00:54:09;94736.28;;;1.81;100.00
11099;BME280;12223;42.650;23.364;2023-03-17T00:56:37;94740.97;;;1.85;100.00
11099;BME280;12223;42.650;23.364;2023-03-17T00:59:14;94742.09;;;1.91;100.00
11099;BME280;12223;42.650;23.364;2023-03-17T01:01:43;94736.44;;;1.79;100.00
11099;BME280;12223;42.650;23.364;2023-03-17T01:04:11;94727.84;;;1.71;100.00
11099;BME280;12223;42.650;23.364;2023-03-17T01:06:53;94749.59;;;1.86;100.00
11099;BME280;12223;42.650;23.364;2023-03-17T01:09:23;94721.34;;;1.75;100.00
11099;BME280;12223;42.650;23.364;2023-03-17T01:11:51;94743.72;;;1.92;100.00
11099;BME280;12223;42.650;23.364;2023-03-17T01:14:21;94716.13;;;1.75;100.00
11099;BME280;12223;42.650;23.364;2023-03-17T01:16:49;94748.28;;;1.90;100.00
11099;BME280;12223;42.650;23.364;2023-03-17T01:19:17;94755.47;;;1.88;100.00
11099;BME280;12223;42.650;23.364;2023-03-17T01:21:44;94755.28;;;1.97;100.00
11099;BME280;12223;42.650;23.364;2023-03-17T01:24:13;94746.63;;;1.97;100.00
11099;BME280;12223;42.650;23.364;2023-03-17T01:26:42;94745.81;;;2.05;100.00
11099;BME280;12223;42.650;23.364;2023-03-17T01:29:10;94755.56;;;2.11;100.00
11099;BME280;12223;42.650;23.364;2023-03-17T01:31:38;94766.47;;;2.14;100.00
11099;BME280;12223;42.650;23.364;2023-03-17T01:34:05;94759.78;;;2.12;100.00
11099;BME280;12223;42.650;23.364;2023-03-17T01:36:32;94771.69;;;2.14;100.00
11099;BME280;12223;42.650;23.364;2023-03-17T01:39:00;94761.94;;;2.08;100.00
11099;BME280;12223;42.650;23.364;2023-03-17T01:45:00;94751.53;;;2.00;100.00
11099;BME280;12223;42.650;23.364;2023-03-17T01:47:29;94771.31;;;2.17;100.00
11099;BME280;12223;42.650;23.364;2023-03-17T01:49:59;94781.44;;;2.20;100.00
11099;BME280;12223;42.650;23.364;2023-03-17T01:52:34;94782.72;;;2.24;100.00
11099;BME280;12223;42.650;23.364;2023-03-17T01:55:14;94792.81;;;2.27;100.00
11099;BME280;12223;42.650;23.364;2023-03-17T01:58:00;94801.75;;;2.25;100.00
11099;BME280;12223;42.650;23.364;2023-03-17T02:00:36;94774.44;;;2.21;100.00
11099;BME280;12223;42.650;23.364;2023-03-17T02:03:09;94787.41;;;2.29;100.00
11099;BME280;12223;42.650;23.364;2023-03-17T02:05:40;94799.13;;;2.33;100.00
11099;BME280;12223;42.650;23.364;2023-03-17T02:08:14;94790.69;;;2.23;100.00
11099;BME280;12223;42.650;23.364;2023-03-17T02:10:47;94801.91;;;2.31;100.00
11099;BME280;12223;42.650;23.364;2023-03-17T02:13:23;94793.13;;;2.24;100.00
11099;BME280;12223;42.650;23.364;2023-03-17T02:16:12;94814.78;;;2.25;100.00
11099;BME280;12223;42.650;23.364;2023-03-17T02:18:42;94731.28;;;1.47;100.00
11099;BME280;12223;42.650;23.364;2023-03-17T02:21:33;94817.84;;;2.36;100.00
11099;BME280;12223;42.650;23.364;2023-03-17T02:24:09;94814.41;;;2.36;100.00
11099;BME280;12223;42.650;23.364;2023-03-17T02:26:39;94812.47;;;2.38;100.00
11099;BME280;12223;42.650;23.364;2023-03-17T02:29:09;94822.22;;;2.44;100.00
11099;BME280;12223;42.650;23.364;2023-03-17T02:31:37;94814.72;;;2.41;100.00
11099;BME280;12223;42.650;23.364;2023-03-17T02:34:05;94822.25;;;2.36;100.00
11099;BME280;12223;42.650;23.364;2023-03-17T02:36:38;94815.25;;;2.36;100.00
11099;BME280;12223;42.650;23.364;2023-03-17T02:39:05;94821.25;;;2.37;100.00
11099;BME280;12223;42.650;23.364;2023-03-17T02:41:33;94815.41;;;2.35;100.00
11099;BME280;12223;42.650;23.364;2023-03-17T02:44:00;94831.66;;;2.45;100.00
11099;BME280;12223;42.650;23.364;2023-03-17T02:46:27;94844.53;;;2.47;100.00
11099;BME280;12223;42.650;23.364;2023-03-17T02:48:54;94852.81;;;2.50;100.00
11099;BME280;12223;42.650;23.364;2023-03-17T02:51:22;94857.09;;;2.43;100.00
11099;BME280;12223;42.650;23.364;2023-03-17T02:53:51;94859.53;;;2.45;100.00
11099;BME280;12223;42.650;23.364;2023-03-17T02:56:18;94859.22;;;2.39;100.00
11099;BME280;12223;42.650;23.364;2023-03-17T02:58:48;94860.81;;;2.40;100.00
11099;BME280;12223;42.650;23.364;2023-03-17T03:01:15;94860.19;;;2.38;100.00
11099;BME280;12223;42.650;23.364;2023-03-17T03:03:42;94863.78;;;2.37;100.00
11099;BME280;12223;42.650;23.364;2023-03-17T03:06:10;94849.94;;;2.29;100.00
11099;BME280;12223;42.650;23.364;2023-03-17T03:08:37;94863.78;;;2.29;100.00
11099;BME280;12223;42.650;23.364;2023-03-17T03:11:06;94860.72;;;2.26;100.00
11099;BME280;12223;42.650;23.364;2023-03-17T03:13:33;94862.00;;;2.22;100.00
11099;BME280;12223;42.650;23.364;2023-03-17T03:16:01;94861.06;;;2.15;100.00
11099;BME280;12223;42.650;23.364;2023-03-17T03:18:29;94863.03;;;2.13;100.00
11099;BME280;12223;42.650;23.364;2023-03-17T03:20:57;94861.53;;;2.10;100.00
11099;BME280;12223;42.650;23.364;2023-03-17T03:23:24;94849.19;;;2.04;100.00
11099;BME280;12223;42.650;23.364;2023-03-17T03:25:51;94850.16;;;2.03;100.00
11099;BME280;12223;42.650;23.364;2023-03-17T03:28:19;94852.13;;;2.01;100.00
11099;BME280;12223;42.650;23.364;2023-03-17T03:30:46;94863.69;;;2.07;100.00
11099;BME280;12223;42.650;23.364;2023-03-17T03:33:14;94854.91;;;1.99;100.00
11099;BME280;12223;42.650;23.364;2023-03-17T03:35:41;94874.09;;;2.15;100.00
11099;BME280;12223;42.650;23.364;2023-03-17T03:38:09;94861.53;;;2.10;100.00
11099;BME280;12223;42.650;23.364;2023-03-17T03:40:36;94872.47;;;2.14;100.00
11099;BME280;12223;42.650;23.364;2023-03-17T03:43:03;94873.09;;;2.16;100.00
11099;BME280;12223;42.650;23.364;2023-03-17T03:45:33;94878.97;;;2.18;100.00
11099;BME280;12223;42.650;23.364;2023-03-17T03:48:00;94858.78;;;2.03;100.00
11099;BME280;12223;42.650;23.364;2023-03-17T03:50:27;94865.13;;;2.09;100.00
11099;BME280;12223;42.650;23.364;2023-03-17T03:52:54;94857.00;;;2.04;100.00
11099;BME280;12223;42.650;23.364;2023-03-17T03:55:22;94842.53;;;1.93;100.00
11099;BME280;12223;42.650;23.364;2023-03-17T03:57:49;94845.91;;;2.10;100.00
11099;BME280;12223;42.650;23.364;2023-03-17T04:00:17;94876.50;;;2.24;100.00
11099;BME280;12223;42.650;23.364;2023-03-17T04:02:45;94883.34;;;2.25;100.00
11099;BME280;12223;42.650;23.364;2023-03-17T04:05:12;94890.00;;;2.28;100.00
11099;BME280;12223;42.650;23.364;2023-03-17T04:07:40;94894.59;;;2.26;100.00
11099;BME280;12223;42.650;23.364;2023-03-17T04:10:08;94897.19;;;2.26;100.00
11099;BME280;12223;42.650;23.364;2023-03-17T04:12:36;94900.63;;;2.26;100.00
11099;BME280;12223;42.650;23.364;2023-03-17T04:15:04;94880.75;;;2.17;100.00
11099;BME280;12223;42.650;23.364;2023-03-17T04:17:32;94906.31;;;2.22;100.00
11099;BME280;12223;42.650;23.364;2023-03-17T04:20:00;94902.56;;;2.16;100.00
11099;BME280;12223;42.650;23.364;2023-03-17T04:22:27;94913.81;;;2.17;100.00
11099;BME280;12223;42.650;23.364;2023-03-17T04:24:55;94913.50;;;2.20;100.00
11099;BME280;12223;42.650;23.364;2023-03-17T04:27:22;94917.06;;;2.27;100.00
11099;BME280;12223;42.650;23.364;2023-03-17T04:29:48;94921.13;;;2.29;100.00
11099;BME280;12223;42.650;23.364;2023-03-17T04:32:15;94920.66;;;2.34;100.00
11099;BME280;12223;42.650;23.364;2023-03-17T04:34:42;94924.22;;;2.33;100.00
11099;BME280;12223;42.650;23.364;2023-03-17T04:37:13;94933.97;;;2.39;100.00
11099;BME280;12223;42.650;23.364;2023-03-17T04:39:40;94926.00;;;2.32;100.00
11099;BME280;12223;42.650;23.364;2023-03-17T04:42:08;94938.38;;;2.38;100.00
11099;BME280;12223;42.650;23.364;2023-03-17T04:44:34;94939.00;;;2.40;100.00
11099;BME280;12223;42.650;23.364;2023-03-17T04:47:02;94938.06;;;2.33;100.00
11099;BME280;12223;42.650;23.364;2023-03-17T04:49:29;94944.22;;;2.40;100.00
11099;BME280;12223;42.650;23.364;2023-03-17T04:51:56;94949.13;;;2.43;100.00
11099;BME280;12223;42.650;23.364;2023-03-17T04:54:24;94954.03;;;2.47;100.00
11099;BME280;12223;42.650;23.364;2023-03-17T04:56:52;94940.34;;;2.28;100.00
11099;BME280;12223;42.650;23.364;2023-03-17T04:59:19;94955.66;;;2.39;100.00
11099;BME280;12223;42.650;23.364;2023-03-17T05:01:45;94942.63;;;2.39;100.00
11099;BME280;12223;42.650;23.364;2023-03-17T05:04:12;94963.63;;;2.46;100.00
11099;BME280;12223;42.650;23.364;2023-03-17T05:06:39;94971.44;;;2.38;100.00
11099;BME280;12223;42.650;23.364;2023-03-17T05:09:06;94975.84;;;2.37;100.00
11099;BME280;12223;42.650;23.364;2023-03-17T05:11:34;94977.31;;;2.40;100.00
11099;BME280;12223;42.650;23.364;2023-03-17T05:14:01;94982.34;;;2.41;100.00
11099;BME280;12223;42.650;23.364;2023-03-17T05:16:28;94984.13;;;2.41;100.00
11099;BME280;12223;42.650;23.364;2023-03-17T05:18:55;94985.94;;;2.32;100.00
11099;BME280;12223;42.650;23.364;2023-03-17T05:21:22;95005.16;;;2.39;100.00
11099;BME280;12223;42.650;23.364;2023-03-17T05:23:49;95006.16;;;2.38;100.00
11099;BME280;12223;42.650;23.364;2023-03-17T05:26:16;95011.19;;;2.40;100.00
11099;BME280;12223;42.650;23.364;2023-03-17T05:28:44;95006.16;;;2.47;100.00
11099;BME280;12223;42.650;23.364;2023-03-17T05:31:12;95002.56;;;2.39;100.00
11099;BME280;12223;42.650;23.364;2023-03-17T05:33:39;95012.50;;;2.44;100.00
11099;BME280;12223;42.650;23.364;2023-03-17T05:36:06;95005.00;;;2.49;100.00
11099;BME280;12223;42.650;23.364;2023-03-17T05:38:33;95013.94;;;2.63;100.00
11099;BME280;12223;42.650;23.364;2023-03-17T05:41:00;95013.59;;;2.66;100.00
11099;BME280;12223;42.650;23.364;2023-03-17T05:43:28;95039.03;;;2.64;100.00
11099;BME280;12223;42.650;23.364;2023-03-17T05:45:57;95024.84;;;2.66;100.00
11099;BME280;12223;42.650;23.364;2023-03-17T05:48:23;95029.59;;;2.63;100.00
11099;BME280;12223;42.650;23.364;2023-03-17T05:50:51;94998.13;;;2.48;100.00
11099;BME280;12223;42.650;23.364;2023-03-17T05:53:18;95019.66;;;2.58;100.00
11099;BME280;12223;42.650;23.364;2023-03-17T05:55:45;95040.84;;;2.71;100.00
11099;BME280;12223;42.650;23.364;2023-03-17T05:58:12;95010.72;;;2.53;100.00
11099;BME280;12223;42.650;23.364;2023-03-17T06:00:41;95030.41;;;2.63;100.00
11099;BME280;12223;42.650;23.364;2023-03-17T06:03:11;94982.69;;;2.30;100.00
11099;BME280;12223;42.650;23.364;2023-03-17T06:05:37;95059.53;;;2.91;100.00
11099;BME280;12223;42.650;23.364;2023-03-17T06:08:05;94880.78;;;1.85;100.00
11099;BME280;12223;42.650;23.364;2023-03-17T06:10:32;95078.59;;;3.08;100.00
11099;BME280;12223;42.650;23.364;2023-03-17T06:12:59;95065.22;;;3.11;100.00
11099;BME280;12223;42.650;23.364;2023-03-17T06:15:26;95081.34;;;3.14;100.00
11099;BME280;12223;42.650;23.364;2023-03-17T06:17:54;95087.56;;;3.13;100.00
11099;BME280;12223;42.650;23.364;2023-03-17T06:20:22;95093.09;;;3.18;100.00
11099;BME280;12223;42.650;23.364;2023-03-17T06:22:49;95089.00;;;3.24;100.00
11099;BME280;12223;42.650;23.364;2023-03-17T06:25:18;95117.69;;;3.40;100.00
11099;BME280;12223;42.650;23.364;2023-03-17T06:27:51;95109.50;;;3.43;100.00
11099;BME280;12223;42.650;23.364;2023-03-17T06:30:20;95111.97;;;3.45;100.00
11099;BME280;12223;42.650;23.364;2023-03-17T06:32:47;95120.91;;;3.50;100.00
11099;BME280;12223;42.650;23.364;2023-03-17T06:35:15;95135.25;;;3.62;100.00
11099;BME280;12223;42.650;23.364;2023-03-17T06:37:43;95123.50;;;3.58;100.00
11099;BME280;12223;42.650;23.364;2023-03-17T06:40:11;95123.53;;;3.50;100.00
11099;BME280;12223;42.650;23.364;2023-03-17T06:42:40;95119.78;;;3.45;100.00
11099;BME280;12223;42.650;23.364;2023-03-17T06:45:09;95123.00;;;3.55;100.00
11099;BME280;12223;42.650;23.364;2023-03-17T06:47:36;95142.91;;;3.72;100.00
11099;BME280;12223;42.650;23.364;2023-03-17T06:50:05;95141.72;;;3.83;100.00
11099;BME280;12223;42.650;23.364;2023-03-17T06:52:34;95149.56;;;3.75;100.00
11099;BME280;12223;42.650;23.364;2023-03-17T06:55:11;95140.56;;;3.85;100.00
11099;BME280;12223;42.650;23.364;2023-03-17T06:57:40;95154.75;;;3.91;100.00
11099;BME280;12223;42.650;23.364;2023-03-17T07:00:11;95159.59;;;4.02;100.00
11099;BME280;12223;42.650;23.364;2023-03-17T07:02:39;95070.31;;;3.59;100.00
11099;BME280;12223;42.650;23.364;2023-03-17T07:05:06;95168.53;;;4.16;100.00
11099;BME280;12223;42.650;23.364;2023-03-17T07:07:34;95156.56;;;4.21;100.00
11099;BME280;12223;42.650;23.364;2023-03-17T07:10:02;95156.22;;;4.24;100.00
11099;BME280;12223;42.650;23.364;2023-03-17T07:12:31;95167.16;;;4.28;100.00
11099;BME280;12223;42.650;23.364;2023-03-17T07:14:58;95159.19;;;4.21;100.00
11099;BME280;12223;42.650;23.364;2023-03-17T07:17:25;95155.94;;;4.11;100.00
11099;BME280;12223;42.650;23.364;2023-03-17T07:19:52;95164.41;;;4.21;100.00
11099;BME280;12223;42.650;23.364;2023-03-17T07:22:19;95170.09;;;4.25;100.00
11099;BME280;12223;42.650;23.364;2023-03-17T07:24:46;95160.63;;;4.24;100.00
11099;BME280;12223;42.650;23.364;2023-03-17T07:27:14;95161.69;;;4.45;100.00
11099;BME280;12223;42.650;23.364;2023-03-17T07:29:42;95162.25;;;4.56;100.00
11099;BME280;12223;42.650;23.364;2023-03-17T07:32:12;95160.59;;;4.63;100.00
11099;BME280;12223;42.650;23.364;2023-03-17T07:34:39;95173.41;;;4.80;100.00
11099;BME280;12223;42.650;23.364;2023-03-17T07:37:06;95170.84;;;4.95;100.00
11099;BME280;12223;42.650;23.364;2023-03-17T07:39:34;95168.75;;;4.91;100.00
11099;BME280;12223;42.650;23.364;2023-03-17T07:42:02;95180.19;;;4.90;100.00
11099;BME280;12223;42.650;23.364;2023-03-17T07:44:29;95177.00;;;5.02;100.00
11099;BME280;12223;42.650;23.364;2023-03-17T07:46:59;95186.31;;;5.05;100.00
11099;BME280;12223;42.650;23.364;2023-03-17T07:49:26;95191.72;;;5.03;100.00
11099;BME280;12223;42.650;23.364;2023-03-17T07:51:53;95154.78;;;4.98;100.00
11099;BME280;12223;42.650;23.364;2023-03-17T07:54:20;95179.34;;;5.35;100.00
11099;BME280;12223;42.650;23.364;2023-03-17T07:56:47;95195.72;;;4.91;100.00
11099;BME280;12223;42.650;23.364;2023-03-17T07:59:14;95204.00;;;5.03;100.00
11099;BME280;12223;42.650;23.364;2023-03-17T08:01:41;95187.97;;;5.20;100.00
11099;BME280;12223;42.650;23.364;2023-03-17T08:04:10;95198.44;;;5.20;100.00
11099;BME280;12223;42.650;23.364;2023-03-17T08:06:37;95188.31;;;5.40;100.00
11099;BME280;12223;42.650;23.364;2023-03-17T08:09:06;95197.84;;;5.56;100.00
11099;BME280;12223;42.650;23.364;2023-03-17T08:11:33;95194.41;;;5.55;100.00
11099;BME280;12223;42.650;23.364;2023-03-17T08:14:01;95187.81;;;5.59;100.00
11099;BME280;12223;42.650;23.364;2023-03-17T08:16:29;95202.31;;;5.47;100.00
11099;BME280;12223;42.650;23.364;2023-03-17T08:18:56;95176.41;;;5.52;100.00
11099;BME280;12223;42.650;23.364;2023-03-17T08:21:27;95183.66;;;5.65;100.00
11099;BME280;12223;42.650;23.364;2023-03-17T08:23:54;95211.09;;;5.92;100.00
11099;BME280;12223;42.650;23.364;2023-03-17T08:26:22;95205.84;;;5.92;100.00
11099;BME280;12223;42.650;23.364;2023-03-17T08:28:50;95199.50;;;6.01;100.00
11099;BME280;12223;42.650;23.364;2023-03-17T08:31:18;95203.88;;;5.94;100.00
11099;BME280;12223;42.650;23.364;2023-03-17T08:33:47;95182.53;;;5.97;100.00
11099;BME280;12223;42.650;23.364;2023-03-17T08:36:15;95202.41;;;6.21;100.00
11099;BME280;12223;42.650;23.364;2023-03-17T08:38:44;95194.47;;;6.29;100.00
11099;BME280;12223;42.650;23.364;2023-03-17T08:41:23;95193.09;;;6.33;100.00
11099;BME280;12223;42.650;23.364;2023-03-17T08:43:51;95207.00;;;6.48;100.00
11099;BME280;12223;42.650;23.364;2023-03-17T08:46:21;95205.38;;;6.62;100.00
11099;BME280;12223;42.650;23.364;2023-03-17T08:48:50;95207.56;;;6.43;100.00
11099;BME280;12223;42.650;23.364;2023-03-17T08:51:18;95187.75;;;6.41;100.00
11099;BME280;12223;42.650;23.364;2023-03-17T08:53:47;95177.19;;;6.20;100.00
11099;BME280;12223;42.650;23.364;2023-03-17T08:56:14;95208.13;;;6.10;100.00
11099;BME280;12223;42.650;23.364;2023-03-17T08:58:41;95207.84;;;5.90;100.00
11099;BME280;12223;42.650;23.364;2023-03-17T09:01:09;95207.53;;;5.85;100.00
11099;BME280;12223;42.650;23.364;2023-03-17T09:03:36;95205.53;;;5.72;100.00
11099;BME280;12223;42.650;23.364;2023-03-17T09:06:06;95206.69;;;5.70;100.00
11099;BME280;12223;42.650;23.364;2023-03-17T09:08:36;95212.00;;;5.99;100.00
11099;BME280;12223;42.650;23.364;2023-03-17T09:11:06;95206.41;;;6.17;100.00
11099;BME280;12223;42.650;23.364;2023-03-17T09:13:36;95215.53;;;6.21;100.00
11099;BME280;12223;42.650;23.364;2023-03-17T09:16:03;95212.91;;;6.21;100.00
11099;BME280;12223;42.650;23.364;2023-03-17T09:18:31;95211.09;;;6.36;100.00
11099;BME280;12223;42.650;23.364;2023-03-17T09:20:59;95202.47;;;6.57;100.00
11099;BME280;12223;42.650;23.364;2023-03-17T09:23:26;95214.34;;;7.10;100.00
11099;BME280;12223;42.650;23.364;2023-03-17T09:25:53;95214.09;;;7.05;100.00
11099;BME280;12223;42.650;23.364;2023-03-17T09:28:23;95208.94;;;6.75;96.32
11099;BME280;12223;42.650;23.364;2023-03-17T09:30:50;95222.84;;;6.55;94.23
11099;BME280;12223;42.650;23.364;2023-03-17T09:33:17;95200.84;;;6.56;94.30
11099;BME280;12223;42.650;23.364;2023-03-17T09:35:47;95201.91;;;6.61;95.77
11099;BME280;12223;42.650;23.364;2023-03-17T09:38:22;95213.63;;;6.44;96.86
11099;BME280;12223;42.650;23.364;2023-03-17T09:40:53;95219.13;;;6.34;96.64
11099;BME280;12223;42.650;23.364;2023-03-17T09:43:32;95228.84;;;6.19;94.90
11099;BME280;12223;42.650;23.364;2023-03-17T09:46:08;95218.06;;;5.99;94.79
11099;BME280;12223;42.650;23.364;2023-03-17T09:48:49;95205.59;;;6.16;99.80
11099;BME280;12223;42.650;23.364;2023-03-17T09:51:18;95226.38;;;6.47;94.24
11099;BME280;12223;42.650;23.364;2023-03-17T09:53:50;95232.09;;;6.86;96.61
11099;BME280;12223;42.650;23.364;2023-03-17T09:56:19;95225.16;;;7.21;91.34
11099;BME280;12223;42.650;23.364;2023-03-17T09:58:52;95216.78;;;7.54;85.29
11099;BME280;12223;42.650;23.364;2023-03-17T10:01:20;95197.38;;;7.55;83.43
11099;BME280;12223;42.650;23.364;2023-03-17T10:03:48;95232.97;;;8.06;80.83
11099;BME280;12223;42.650;23.364;2023-03-17T10:06:32;95229.59;;;8.19;76.37
11099;BME280;12223;42.650;23.364;2023-03-17T10:09:06;95229.13;;;8.37;73.23
11099;BME280;12223;42.650;23.364;2023-03-17T10:11:39;95219.06;;;8.54;71.21
11099;BME280;12223;42.650;23.364;2023-03-17T10:14:21;95223.81;;;8.65;67.41
11099;BME280;12223;42.650;23.364;2023-03-17T10:16:57;95227.53;;;8.42;67.38
11099;BME280;12223;42.650;23.364;2023-03-17T10:19:29;95227.16;;;8.45;69.06
11099;BME280;12223;42.650;23.364;2023-03-17T10:21:59;95241.28;;;8.10;65.88
11099;BME280;12223;42.650;23.364;2023-03-17T10:24:29;95178.00;;;7.84;69.45
11099;BME280;12223;42.650;23.364;2023-03-17T10:26:59;95231.16;;;8.41;68.27
11099;BME280;12223;42.650;23.364;2023-03-17T10:29:30;95228.19;;;8.51;66.14
11099;BME280;12223;42.650;23.364;2023-03-17T10:31:57;95231.00;;;8.50;67.80
11099;BME280;12223;42.650;23.364;2023-03-17T10:34:26;95211.19;;;8.47;65.33
11099;BME280;12223;42.650;23.364;2023-03-17T10:36:54;95217.69;;;8.58;66.46
11099;BME280;12223;42.650;23.364;2023-03-17T10:39:25;95216.28;;;8.62;68.92
11099;BME280;12223;42.650;23.364;2023-03-17T10:41:55;95222.41;;;8.75;67.78
11099;BME280;12223;42.650;23.364;2023-03-17T10:44:34;95223.44;;;8.74;66.04
11099;BME280;12223;42.650;23.364;2023-03-17T10:47:05;95199.94;;;8.79;65.39
11099;BME280;12223;42.650;23.364;2023-03-17T10:49:45;95215.81;;;9.06;65.11
11099;BME280;12223;42.650;23.364;2023-03-17T10:52:18;95198.41;;;9.11;62.00
11099;BME280;12223;42.650;23.364;2023-03-17T10:54:47;95208.56;;;9.14;61.66
11099;BME280;12223;42.650;23.364;2023-03-17T10:57:15;95201.69;;;9.26;61.87
11099;BME280;12223;42.650;23.364;2023-03-17T10:59:49;95185.47;;;9.29;60.02
11099;BME280;12223;42.650;23.364;2023-03-17T11:02:22;95193.81;;;9.46;60.31
11099;BME280;12223;42.650;23.364;2023-03-17T11:04:53;95193.41;;;9.69;58.25
11099;BME280;12223;42.650;23.364;2023-03-17T11:07:26;95192.81;;;9.47;55.46
11099;BME280;12223;42.650;23.364;2023-03-17T11:09:57;95182.25;;;9.41;55.59
11099;BME280;12223;42.650;23.364;2023-03-17T11:12:26;95177.81;;;9.61;54.68
11099;BME280;12223;42.650;23.364;2023-03-17T11:15:03;95166.81;;;9.44;54.67
11099;BME280;12223;42.650;23.364;2023-03-17T11:17:40;95163.56;;;9.82;56.27
11099;BME280;12223;42.650;23.364;2023-03-17T11:20:26;95164.19;;;9.90;57.22
11099;BME280;12223;42.650;23.364;2023-03-17T11:23:03;95164.19;;;9.77;55.78
11099;BME280;12223;42.650;23.364;2023-03-17T11:25:31;95175.34;;;9.99;55.69
11099;BME280;12223;42.650;23.364;2023-03-17T11:28:12;95173.09;;;10.02;52.93
11099;BME280;12223;42.650;23.364;2023-03-17T11:30:48;95170.47;;;9.96;54.10
11099;BME280;12223;42.650;23.364;2023-03-17T11:33:31;95170.00;;;10.12;53.47
11099;BME280;12223;42.650;23.364;2023-03-17T11:36:05;95177.16;;;10.05;51.84
11099;BME280;12223;42.650;23.364;2023-03-17T11:38:42;95134.56;;;9.82;52.18
11099;BME280;12223;42.650;23.364;2023-03-17T11:41:42;95164.16;;;10.03;53.46
11099;BME280;12223;42.650;23.364;2023-03-17T11:44:31;95165.13;;;10.29;52.96
11099;BME280;12223;42.650;23.364;2023-03-17T11:47:06;95163.03;;;10.44;53.62
11099;BME280;12223;42.650;23.364;2023-03-17T11:49:35;95164.63;;;10.58;51.69
11099;BME280;12223;42.650;23.364;2023-03-17T11:52:07;95163.53;;;10.21;51.71
11099;BME280;12223;42.650;23.364;2023-03-17T11:54:46;95153.81;;;9.95;52.34
11099;BME280;12223;42.650;23.364;2023-03-17T11:57:20;95154.03;;;9.67;53.58
11099;BME280;12223;42.650;23.364;2023-03-17T11:59:51;95156.28;;;9.57;53.67
11099;BME280;12223;42.650;23.364;2023-03-17T12:02:25;95159.94;;;9.37;52.88
11099;BME280;12223;42.650;23.364;2023-03-17T12:04:57;95156.28;;;9.64;54.28
11099;BME280;12223;42.650;23.364;2023-03-17T12:07:31;95153.00;;;9.82;54.56
11099;BME280;12223;42.650;23.364;2023-03-17T12:10:07;95152.16;;;10.01;53.71
11099;BME280;12223;42.650;23.364;2023-03-17T12:12:49;95151.97;;;10.22;52.96
11099;BME280;12223;42.650;23.364;2023-03-17T12:15:26;95147.88;;;10.26;53.23
11099;BME280;12223;42.650;23.364;2023-03-17T12:18:00;95146.03;;;10.27;52.69
11099;BME280;12223;42.650;23.364;2023-03-17T12:20:32;95143.81;;;10.30;52.33
11099;BME280;12223;42.650;23.364;2023-03-17T12:23:05;95133.06;;;10.19;52.18
11099;BME280;12223;42.650;23.364;2023-03-17T12:25:43;95146.44;;;10.37;51.58
11099;BME280;12223;42.650;23.364;2023-03-17T12:28:18;95144.84;;;10.16;51.74
11099;BME280;12223;42.650;23.364;2023-03-17T12:30:51;95118.44;;;10.16;51.67
11099;BME280;12223;42.650;23.364;2023-03-17T12:33:25;95137.72;;;10.30;51.07
11099;BME280;12223;42.650;23.364;2023-03-17T12:35:55;95136.47;;;10.32;50.85
11099;BME280;12223;42.650;23.364;2023-03-17T12:38:29;95132.56;;;10.48;50.93
11099;BME280;12223;42.650;23.364;2023-03-17T12:41:13;95133.06;;;10.25;49.22
11099;BME280;12223;42.650;23.364;2023-03-17T12:43:56;95144.88;;;10.03;49.95
11099;BME280;12223;42.650;23.364;2023-03-17T12:55:30;95146.88;;;8.82;52.77
11099;BME280;12223;42.650;23.364;2023-03-17T12:58:02;95141.72;;;8.55;52.09
11099;BME280;12223;42.650;23.364;2023-03-17T13:00:33;95150.84;;;8.11;54.17
11099;BME280;12223;42.650;23.364;2023-03-17T13:03:13;95145.09;;;8.35;55.72
11099;BME280;12223;42.650;23.364;2023-03-17T13:05:47;95142.06;;;8.32;57.01
11099;BME280;12223;42.650;23.364;2023-03-17T13:08:22;95152.25;;;8.07;57.96
11099;BME280;12223;42.650;23.364;2023-03-17T13:11:18;95138.47;;;7.71;63.58
11099;BME280;12223;42.650;23.364;2023-03-17T13:14:04;95145.16;;;7.73;64.71
11099;BME280;12223;42.650;23.364;2023-03-17T13:16:36;95126.81;;;7.52;64.92
11099;BME280;12223;42.650;23.364;2023-03-17T13:19:20;95152.38;;;7.37;68.59
11099;BME280;12223;42.650;23.364;2023-03-17T13:22:32;95143.25;;;7.33;66.87